Terminal Aerodrome Forecast
Issued by NWS

Home | Current Version | Previous Version | Text Only | Print | Product List | Glossary On
Versions: 1 2 3 4 5 6 7 8 9 10 11 12 13 14 15 16 17 18 19 20 21 22 23 24
000
FTUS43 KDLH 220500
TAFHYR
TAF
KHYR 220536Z 2206/2306 15007KT 5SM -DZ BR OVC005
     FM220700 14007KT 1 1/2SM -SNRA BR BKN005 OVC010
      TEMPO 2207/2210 3/4SM -SN BR SCT005 OVC013
     FM221200 14006KT 1 1/2SM -DZSN BR OVC005
     FM221800 13007KT 3SM -DZ BR OVC008
     FM222300 10004KT 2SM BR OVC007=

USA.gov is the U.S. government's official web portal to all federal, state and local government web resources and services.